createdAt,value
2022-12-16T00:00:11.768Z,99494.69
2022-12-16T00:02:39.291Z,99490.72
2022-12-16T00:05:07.073Z,99494.69
2022-12-16T00:07:35.407Z,99498.94
2022-12-16T00:10:02.973Z,99495.75
2022-12-16T00:12:30.307Z,99485.25
2022-12-16T00:14:57.664Z,99495.09
2022-12-16T00:17:25.050Z,99490.97
2022-12-16T00:19:52.423Z,99481.34
2022-12-16T00:22:19.742Z,99492.44
2022-12-16T00:24:47.175Z,99494.22
2022-12-16T00:27:14.507Z,99493.31
2022-12-16T00:29:41.825Z,99490.59
2022-12-16T00:32:09.277Z,99486.47
2022-12-16T00:34:36.585Z,99480.09
2022-12-16T00:37:06.564Z,99492.66
2022-12-16T00:39:33.940Z,99488.69
2022-12-16T00:42:01.251Z,99488.84
2022-12-16T00:44:28.620Z,99494.69
2022-12-16T00:46:55.972Z,99489.78
2022-12-16T00:49:23.285Z,99498.84
2022-12-16T00:51:50.696Z,99498.53
2022-12-16T00:54:17.997Z,99498.53
2022-12-16T00:56:45.289Z,99488.50
2022-12-16T00:59:12.638Z,99492.03
2022-12-16T01:01:40.146Z,99499.00
2022-12-16T01:04:07.573Z,99505.34
2022-12-16T01:06:35.623Z,99512.34
2022-12-16T01:09:03.120Z,99511.22
2022-12-16T01:11:30.414Z,99515.69
2022-12-16T01:13:59.289Z,99524.09
2022-12-16T01:16:29.405Z,99523.16
2022-12-16T01:18:56.857Z,99517.91
2022-12-16T01:21:24.167Z,99519.47
2022-12-16T01:23:52.055Z,99509.47
2022-12-16T01:26:22.617Z,99503.59
2022-12-16T01:28:50.009Z,99501.22
2022-12-16T01:31:19.332Z,99505.34
2022-12-16T01:33:46.897Z,99493.28
2022-12-16T01:36:14.401Z,99495.84
2022-12-16T01:38:44.252Z,99502.00
2022-12-16T01:41:13.681Z,99502.50
2022-12-16T01:43:42.759Z,99510.28
2022-12-16T01:46:13.324Z,99503.47
2022-12-16T01:49:06.906Z,99500.13
2022-12-16T01:51:47.521Z,99507.91
2022-12-16T01:57:13.791Z,99496.00
2022-12-16T01:59:45.707Z,99493.31
2022-12-16T02:02:14.149Z,99491.69
2022-12-16T02:05:01.486Z,99486.13
2022-12-16T02:07:28.835Z,99490.91
2022-12-16T02:09:56.631Z,99502.50
2022-12-16T02:15:37.716Z,99501.84
2022-12-16T02:18:33.409Z,99496.78
2022-12-16T02:21:44.053Z,99495.66
2022-12-16T02:24:39.749Z,99504.41
2022-12-16T02:30:47.581Z,99491.88
2022-12-16T02:33:41.624Z,99488.53
2022-12-16T02:36:22.032Z,99484.41
2022-12-16T02:39:27.730Z,99490.44
2022-12-16T02:42:07.336Z,99496.94
2022-12-16T02:47:34.721Z,99507.91
2022-12-16T02:50:02.969Z,99506.31
2022-12-16T02:52:34.224Z,99518.06
2022-12-16T02:55:09.143Z,99533.16
2022-12-16T02:57:36.412Z,99546.69
2022-12-16T03:00:17.110Z,99542.19
2022-12-16T03:02:57.020Z,99546.47
2022-12-16T03:05:37.594Z,99549.97
2022-12-16T03:08:13.778Z,99539.97
2022-12-16T03:10:46.664Z,99516.78
2022-12-16T03:13:17.405Z,99509.47
2022-12-16T03:16:07.979Z,99523.47
2022-12-16T03:21:25.602Z,99521.88
2022-12-16T03:24:02.835Z,99531.38
2022-12-16T03:26:40.986Z,99528.38
2022-12-16T03:29:14.309Z,99529.50
2022-12-16T03:31:49.894Z,99529.81
2022-12-16T03:37:24.401Z,99537.13
2022-12-16T03:39:55.508Z,99528.22
2022-12-16T03:42:24.113Z,99530.09
2022-12-16T03:44:51.473Z,99519.19
2022-12-16T03:47:23.583Z,99517.28
2022-12-16T03:49:51.567Z,99525.03
2022-12-16T03:55:03.807Z,99543.44
2022-12-16T03:57:31.096Z,99550.63
2022-12-16T03:59:58.397Z,99553.78
2022-12-16T04:02:25.896Z,99549.50
2022-12-16T04:04:53.391Z,99537.75
2022-12-16T04:10:07.429Z,99546.94
2022-12-16T04:12:53.590Z,99549.00
2022-12-16T04:15:39.525Z,99548.22
2022-12-16T04:18:35.660Z,99548.19
2022-12-16T04:21:22.498Z,99545.03
2022-12-16T04:27:17.134Z,99549.94
2022-12-16T04:30:03.143Z,99556.28
2022-12-16T04:32:50.933Z,99546.88
2022-12-16T04:35:37.276Z,99543.72
2022-12-16T04:38:23.172Z,99545.47
2022-12-16T04:44:12.779Z,99559.59
2022-12-16T04:47:18.077Z,99557.03
2022-12-16T04:50:04.333Z,99550.63
2022-12-16T04:52:50.274Z,99579.38
2022-12-16T04:55:36.254Z,99588.75
2022-12-16T05:01:36.590Z,99578.28
2022-12-16T05:04:22.454Z,99574.00
2022-12-16T05:07:08.209Z,99576.22
2022-12-16T05:09:54.436Z,99569.19
2022-12-16T05:12:40.391Z,99563.66
2022-12-16T05:15:26.569Z,99549.19
2022-12-16T05:18:12.291Z,99542.16
2022-12-16T05:20:58.260Z,99547.56
2022-12-16T05:23:44.254Z,99546.44
2022-12-16T05:26:30.725Z,99569.31
2022-12-16T05:29:16.682Z,99552.81
2022-12-16T05:35:06.140Z,99577.25
2022-12-16T05:37:52.102Z,99577.25
2022-12-16T05:40:38.094Z,99571.81
2022-12-16T05:43:24.051Z,99563.41
2022-12-16T05:46:10.043Z,99567.72
2022-12-16T05:48:55.798Z,99571.69
2022-12-16T05:51:41.729Z,99547.00
2022-12-16T05:54:27.805Z,99579.25
2022-12-16T05:57:13.736Z,99574.50
2022-12-16T05:59:59.726Z,99561.50
2022-12-16T06:02:45.863Z,99575.78
2022-12-16T06:05:33.119Z,99571.50
2022-12-16T06:08:19.239Z,99584.59
2022-12-16T06:11:05.214Z,99583.94
2022-12-16T06:13:51.142Z,99580.91
2022-12-16T06:16:37.094Z,99574.34
2022-12-16T06:19:23.222Z,99575.97
2022-12-16T06:22:09.216Z,99570.72
2022-12-16T06:24:55.161Z,99588.13
2022-12-16T06:27:41.373Z,99601.94
2022-12-16T06:30:28.399Z,99585.91
2022-12-16T06:33:14.367Z,99584.50
2022-12-16T06:36:00.257Z,99585.31
2022-12-16T06:38:46.336Z,99598.91
2022-12-16T06:41:35.010Z,99599.94
2022-12-16T06:44:31.691Z,99606.75
2022-12-16T06:47:17.855Z,99600.69
2022-12-16T06:50:03.672Z,99606.75
2022-12-16T06:52:49.690Z,99620.59
2022-12-16T06:55:35.662Z,99606.25
2022-12-16T06:58:24.073Z,99607.31
2022-12-16T07:01:10.400Z,99617.69
2022-12-16T07:03:56.297Z,99626.16
2022-12-16T07:06:42.476Z,99616.31
2022-12-16T07:09:29.025Z,99635.47
2022-12-16T07:12:15.053Z,99635.25
2022-12-16T07:15:00.847Z,99624.06
2022-12-16T07:17:46.864Z,99618.22
2022-12-16T07:20:32.707Z,99635.97
2022-12-16T07:23:20.039Z,99654.53
2022-12-16T07:26:06.100Z,99652.31
2022-12-16T07:28:51.926Z,99636.69
2022-12-16T07:31:37.884Z,99663.00
2022-12-16T07:34:23.610Z,99646.56
2022-12-16T07:37:12.178Z,99664.50
2022-12-16T07:40:14.599Z,99664.31
2022-12-16T07:43:21.335Z,99667.06
2022-12-16T07:46:07.220Z,99661.97
2022-12-16T07:48:52.986Z,99675.94
2022-12-16T07:51:38.578Z,99693.78
2022-12-16T07:54:33.376Z,99688.00
2022-12-16T07:57:19.043Z,99680.84
2022-12-16T08:00:05.079Z,99681.75
2022-12-16T08:02:58.315Z,99705.59
2022-12-16T08:05:44.298Z,99722.06
2022-12-16T08:08:30.330Z,99716.38
2022-12-16T08:11:16.290Z,99712.38
2022-12-16T08:14:02.467Z,99699.94
2022-12-16T08:16:48.565Z,99717.41
2022-12-16T08:19:34.644Z,99730.59
2022-12-16T08:22:20.557Z,99745.16
2022-12-16T08:25:06.539Z,99728.44
2022-12-16T08:27:52.370Z,99717.81
2022-12-16T08:30:38.668Z,99721.34
2022-12-16T08:33:24.758Z,99753.84
2022-12-16T08:36:11.335Z,99749.19
2022-12-16T08:38:57.381Z,99754.88
2022-12-16T08:41:44.022Z,99773.63
2022-12-16T08:44:30.207Z,99743.41
2022-12-16T08:47:16.026Z,99752.50
2022-12-16T08:50:02.512Z,99767.88
2022-12-16T08:52:50.391Z,99775.03
2022-12-16T08:55:36.460Z,99774.47
2022-12-16T08:58:22.387Z,99781.81
2022-12-16T09:01:08.577Z,99768.28
2022-12-16T09:03:55.378Z,99773.50
2022-12-16T09:06:41.523Z,99779.66
2022-12-16T09:09:28.669Z,99785.91
2022-12-16T09:12:14.414Z,99783.22
2022-12-16T09:15:00.433Z,99787.69
2022-12-16T09:17:46.264Z,99796.50
2022-12-16T09:20:32.240Z,99773.47
2022-12-16T09:23:24.211Z,99786.13
2022-12-16T09:26:10.308Z,99790.59
2022-12-16T09:28:57.417Z,99785.59
2022-12-16T09:31:43.930Z,99801.34
2022-12-16T09:34:29.933Z,99806.44
2022-12-16T09:37:15.834Z,99800.06
2022-12-16T09:40:01.847Z,99790.16
2022-12-16T09:43:09.718Z,99787.50
2022-12-16T09:46:14.893Z,99786.25
2022-12-16T09:49:23.407Z,99750.28
2022-12-16T09:52:16.510Z,99766.13
2022-12-16T09:55:06.323Z,99771.81
2022-12-16T09:57:55.678Z,99765.53
2022-12-16T10:00:45.664Z,99759.56
2022-12-16T10:03:40.381Z,99762.16
2022-12-16T10:07:00.614Z,99751.34
2022-12-16T10:09:49.385Z,99758.16
2022-12-16T10:12:38.335Z,99763.88
2022-12-16T10:15:50.544Z,99750.06
2022-12-16T10:19:03.013Z,99761.25
2022-12-16T10:21:58.181Z,99764.72
2022-12-16T10:25:27.044Z,99764.97
2022-12-16T10:28:25.719Z,99760.41
2022-12-16T10:31:12.130Z,99753.91
2022-12-16T10:33:59.350Z,99763.03
2022-12-16T10:36:46.149Z,99767.13
2022-12-16T10:39:47.484Z,99749.31
2022-12-16T10:42:47.099Z,99760.13
2022-12-16T10:45:44.272Z,99750.00
2022-12-16T10:48:32.011Z,99727.72
2022-12-16T10:51:31.805Z,99713.28
2022-12-16T10:54:31.703Z,99714.72
2022-12-16T10:57:31.293Z,99741.56
2022-12-16T11:00:37.391Z,99750.97
2022-12-16T11:03:41.553Z,99747.59
2022-12-16T11:06:29.362Z,99759.81
2022-12-16T11:09:15.260Z,99778.19
2022-12-16T11:12:01.067Z,99772.44
2022-12-16T11:15:05.676Z,99776.59
2022-12-16T11:17:52.765Z,99765.22
2022-12-16T11:20:47.949Z,99770.00
2022-12-16T11:23:34.385Z,99784.38
2022-12-16T11:26:35.875Z,99780.38
2022-12-16T11:29:35.966Z,99788.78
2022-12-16T11:32:50.586Z,99787.97
2022-12-16T11:35:41.216Z,99774.16
2022-12-16T11:38:37.554Z,99787.72
2022-12-16T11:41:24.623Z,99794.72
2022-12-16T11:44:12.573Z,99790.41
2022-12-16T11:46:58.475Z,99777.78
2022-12-16T11:49:51.158Z,99786.34
2022-12-16T11:52:39.568Z,99770.28
2022-12-16T11:56:03.384Z,99780.47
2022-12-16T11:58:43.144Z,99790.78
2022-12-16T12:01:51.300Z,99795.88
2022-12-16T12:04:37.856Z,99786.16
2022-12-16T12:07:41.226Z,99783.78
2022-12-16T12:11:02.779Z,99768.88
2022-12-16T12:14:05.518Z,99776.53
2022-12-16T12:17:05.507Z,99780.50
2022-12-16T12:20:17.369Z,99787.47
2022-12-16T12:23:04.792Z,99771.53
2022-12-16T12:26:32.964Z,99792.72
2022-12-16T12:29:34.049Z,99794.81
2022-12-16T12:32:44.356Z,99786.72
2022-12-16T12:35:36.407Z,99786.47
2022-12-16T12:38:30.376Z,99795.19
2022-12-16T12:41:19.784Z,99795.50
2022-12-16T12:44:13.034Z,99782.19
2022-12-16T12:47:11.462Z,99770.47
2022-12-16T12:50:04.823Z,99776.03
2022-12-16T12:53:22.152Z,99779.44
2022-12-16T12:56:45.384Z,99790.09
2022-12-16T13:00:03.149Z,99791.00
2022-12-16T13:03:03.720Z,99789.63
2022-12-16T13:05:52.710Z,99773.88
2022-12-16T13:09:03.136Z,99786.59
2022-12-16T13:11:49.019Z,99770.63
2022-12-16T13:14:50.363Z,99787.41
2022-12-16T13:17:39.689Z,99794.56
2022-12-16T13:20:50.443Z,99803.72
2022-12-16T13:23:46.608Z,99800.50
2022-12-16T13:26:38.812Z,99799.84
2022-12-16T13:29:33.964Z,99816.56
2022-12-16T13:32:41.623Z,99815.00
2022-12-16T13:35:27.465Z,99815.59
2022-12-16T13:38:14.935Z,99818.28
2022-12-16T13:41:13.212Z,99815.59
2022-12-16T13:44:13.874Z,99826.00
2022-12-16T13:47:12.138Z,99826.53
2022-12-16T13:50:09.866Z,99834.31
2022-12-16T13:53:15.298Z,99838.28
2022-12-16T13:56:19.018Z,99827.00
2022-12-16T13:59:08.253Z,99838.28
2022-12-16T14:02:01.857Z,99839.69
2022-12-16T14:05:16.329Z,99842.22
2022-12-16T14:08:02.993Z,99849.06
2022-12-16T14:10:53.282Z,99851.63
2022-12-16T14:14:15.039Z,99858.00
2022-12-16T14:17:11.017Z,99856.22
2022-12-16T14:20:12.518Z,99863.56
2022-12-16T14:23:55.267Z,99869.09
2022-12-16T14:26:35.539Z,99878.78
2022-12-16T14:29:30.339Z,99874.19
2022-12-16T14:32:16.407Z,99876.53
2022-12-16T14:35:02.252Z,99883.69
2022-12-16T14:37:53.790Z,99884.50
2022-12-16T14:40:44.422Z,99886.88
2022-12-16T14:43:37.000Z,99883.69
2022-12-16T14:46:23.545Z,99890.22
2022-12-16T14:49:10.383Z,99886.41
2022-12-16T14:52:07.062Z,99890.53
2022-12-16T14:55:01.728Z,99897.69
2022-12-16T14:57:50.653Z,99893.91
2022-12-16T15:00:42.296Z,99894.44
2022-12-16T15:03:44.543Z,99903.47
2022-12-16T15:06:40.659Z,99904.16
2022-12-16T15:09:36.188Z,99905.56
2022-12-16T15:12:22.464Z,99908.25
2022-12-16T15:15:10.300Z,99909.97
2022-12-16T15:18:19.380Z,99914.13
2022-12-16T15:21:11.242Z,99910.63
2022-12-16T15:24:00.254Z,99925.75
2022-12-16T15:26:49.728Z,99917.47
2022-12-16T15:30:02.096Z,99924.94
2022-12-16T15:32:53.576Z,99921.44
2022-12-16T15:35:43.699Z,99926.97
2022-12-16T15:38:51.465Z,99936.19
2022-12-16T15:41:52.174Z,99941.56
2022-12-16T15:44:46.267Z,99929.19
2022-12-16T15:47:50.491Z,99932.25
2022-12-16T15:50:47.493Z,99943.53
2022-12-16T15:53:48.892Z,99946.53
2022-12-16T15:56:41.981Z,99947.34
2022-12-16T15:59:45.260Z,99936.56
2022-12-16T16:02:44.166Z,99954.34
2022-12-16T16:05:41.685Z,99955.13
2022-12-16T16:08:30.826Z,99949.09
2022-12-16T16:11:16.871Z,99941.31
2022-12-16T16:14:08.287Z,99948.31
2022-12-16T16:17:15.164Z,99953.56
2022-12-16T16:20:03.826Z,99957.66
2022-12-16T16:22:50.202Z,99962.72
2022-12-16T16:25:35.915Z,99968.97
2022-12-16T16:28:21.929Z,99974.34
2022-12-16T16:31:07.897Z,99982.47
2022-12-16T16:33:53.823Z,99978.66
2022-12-16T16:36:39.478Z,99979.91
2022-12-16T16:39:25.382Z,99973.91
2022-12-16T16:42:11.196Z,99982.03
2022-12-16T16:44:57.225Z,99983.59
2022-12-16T16:47:43.288Z,99985.50
2022-12-16T16:50:33.229Z,99977.91
2022-12-16T16:53:19.187Z,99974.53
2022-12-16T16:56:22.543Z,99972.88
2022-12-16T16:59:08.124Z,99967.75
2022-12-16T17:01:54.468Z,99971.53
2022-12-16T17:04:40.618Z,99985.63
2022-12-16T17:07:26.297Z,99985.63
2022-12-16T17:10:12.292Z,99979.00
2022-12-16T17:13:04.431Z,99986.13
2022-12-16T17:15:56.200Z,99978.44
2022-12-16T17:18:46.649Z,99976.06
2022-12-16T17:21:33.789Z,99978.13
2022-12-16T17:24:19.809Z,99976.75
2022-12-16T17:27:08.496Z,99977.84
2022-12-16T17:29:54.506Z,99981.34
2022-12-16T17:32:40.926Z,99993.50
2022-12-16T17:35:31.802Z,99989.50
2022-12-16T17:38:17.776Z,99992.03
2022-12-16T17:41:10.433Z,99988.03
2022-12-16T17:43:56.367Z,99996.06
2022-12-16T17:46:43.572Z,100005.97
2022-12-16T17:49:29.601Z,100000.94
2022-12-16T17:52:18.763Z,100003.06
2022-12-16T17:55:04.697Z,100008.78
2022-12-16T17:57:50.607Z,100004.28
2022-12-16T18:00:36.445Z,100012.41
2022-12-16T18:03:23.314Z,100000.13
2022-12-16T18:06:15.300Z,100001.00
2022-12-16T18:09:01.165Z,100000.41
2022-12-16T18:11:47.068Z,99994.34
2022-12-16T18:14:32.982Z,99998.47
2022-12-16T18:17:18.704Z,99991.34
2022-12-16T18:20:05.981Z,99995.13
2022-12-16T18:22:51.710Z,99999.25
2022-12-16T18:25:37.701Z,100004.06
2022-12-16T18:28:23.744Z,100013.44
2022-12-16T18:31:09.786Z,100019.44
2022-12-16T18:33:55.933Z,100011.16
2022-12-16T18:36:41.888Z,100011.75
2022-12-16T18:39:30.853Z,100018.03
2022-12-16T18:42:16.639Z,100024.72
2022-12-16T18:45:02.682Z,100022.75
2022-12-16T18:48:09.708Z,100024.47
2022-12-16T18:50:56.245Z,100026.34
2022-12-16T18:53:42.237Z,100034.56
2022-12-16T18:56:28.596Z,100033.13
2022-12-16T18:59:14.615Z,100045.72
2022-12-16T19:02:00.456Z,100036.69
2022-12-16T19:04:46.396Z,100032.91
2022-12-16T19:07:33.978Z,100028.91
2022-12-16T19:10:20.180Z,100034.00
2022-12-16T19:13:06.358Z,100038.94
2022-12-16T19:15:52.778Z,100040.50
2022-12-16T19:18:38.710Z,100046.09
2022-12-16T19:21:24.725Z,100049.28
2022-12-16T19:24:10.866Z,100035.97
2022-12-16T19:26:56.916Z,100045.28
2022-12-16T19:29:43.434Z,100045.28
2022-12-16T19:32:29.494Z,100051.06
2022-12-16T19:35:15.869Z,100045.47
2022-12-16T19:38:01.589Z,100047.38
2022-12-16T19:40:47.596Z,100056.28
2022-12-16T19:43:34.976Z,100060.88
2022-12-16T19:46:21.161Z,100056.41
2022-12-16T19:49:07.538Z,100054.63
2022-12-16T19:51:56.257Z,100054.31
2022-12-16T19:54:42.456Z,100060.53
2022-12-16T19:57:31.377Z,100057.13
2022-12-16T20:00:19.459Z,100068.91
2022-12-16T20:03:05.820Z,100070.03
2022-12-16T20:05:51.821Z,100073.19
2022-12-16T20:08:37.953Z,100071.13
2022-12-16T20:11:28.164Z,100074.31
2022-12-16T20:14:16.878Z,100083.22
2022-12-16T20:17:02.509Z,100085.91
2022-12-16T20:19:48.662Z,100084.63
2022-12-16T20:22:35.081Z,100098.38
2022-12-16T20:25:20.880Z,100097.41
2022-12-16T20:28:06.924Z,100098.13
2022-12-16T20:30:53.602Z,100104.66
2022-12-16T20:33:42.680Z,100115.34
2022-12-16T20:36:29.058Z,100105.31
2022-12-16T20:39:14.985Z,100109.41
2022-12-16T20:42:00.825Z,100114.22
2022-12-16T20:44:47.086Z,100111.41
2022-12-16T20:47:36.314Z,100112.13
2022-12-16T20:50:22.865Z,100122.56
2022-12-16T20:53:08.902Z,100124.94
2022-12-16T20:55:56.108Z,100132.56
2022-12-16T20:58:56.151Z,100133.66
2022-12-16T21:04:48.210Z,100150.56
2022-12-16T21:07:36.978Z,100146.53
2022-12-16T21:10:23.362Z,100149.75
2022-12-16T21:13:09.453Z,100141.81
2022-12-16T21:15:58.932Z,100151.94
2022-12-16T21:18:45.381Z,100162.84
2022-12-16T21:21:31.124Z,100163.44
2022-12-16T21:24:17.078Z,100170.03
2022-12-16T21:27:03.246Z,100174.06
2022-12-16T21:29:49.279Z,100172.63
2022-12-16T21:32:46.213Z,100175.66
2022-12-16T21:35:32.359Z,100179.47
2022-12-16T21:38:20.178Z,100183.75
2022-12-16T21:41:13.190Z,100181.53
2022-12-16T21:43:59.549Z,100178.84
2022-12-16T21:46:45.713Z,100176.94
2022-12-16T21:49:31.764Z,100177.44
2022-12-16T21:52:19.117Z,100168.25
2022-12-16T21:55:05.077Z,100186.34
2022-12-16T21:57:51.038Z,100181.22
2022-12-16T22:00:43.731Z,100190.75
2022-12-16T22:03:32.572Z,100200.22
2022-12-16T22:06:18.398Z,100199.44
2022-12-16T22:09:04.521Z,100198.16
2022-12-16T22:11:50.647Z,100203.75
2022-12-16T22:14:37.654Z,100202.44
2022-12-16T22:17:24.489Z,100206.75
2022-12-16T22:20:11.194Z,100206.47
2022-12-16T22:22:57.472Z,100220.13
2022-12-16T22:25:43.406Z,100228.44
2022-12-16T22:28:29.384Z,100229.94
2022-12-16T22:31:16.411Z,100234.75
2022-12-16T22:34:02.693Z,100229.84
2022-12-16T22:36:48.394Z,100222.94
2022-12-16T22:39:34.373Z,100211.94
2022-12-16T22:42:20.480Z,100214.16
2022-12-16T22:45:06.177Z,100222.75
2022-12-16T22:47:52.139Z,100230.03
2022-12-16T22:50:38.148Z,100231.25
2022-12-16T22:53:24.186Z,100229.84
2022-12-16T22:56:14.363Z,100230.44
2022-12-16T22:59:00.201Z,100222.94
2022-12-16T23:01:46.286Z,100231.84
2022-12-16T23:04:34.050Z,100233.56
2022-12-16T23:07:20.083Z,100232.84
2022-12-16T23:10:05.801Z,100238.97
2022-12-16T23:12:52.392Z,100238.13
2022-12-16T23:15:39.128Z,100236.75
2022-12-16T23:18:25.361Z,100233.25
2022-12-16T23:21:11.340Z,100223.03
2022-12-16T23:23:57.172Z,100234.66
2022-12-16T23:26:43.369Z,100226.25
2022-12-16T23:29:29.345Z,100226.84
2022-12-16T23:32:15.317Z,100236.84
2022-12-16T23:35:01.213Z,100237.25
2022-12-16T23:37:47.283Z,100236.44
2022-12-16T23:40:33.391Z,100226.44
2022-12-16T23:43:19.532Z,100231.84
2022-12-16T23:46:05.484Z,100234.53
2022-12-16T23:48:52.433Z,100231.66
2022-12-16T23:51:39.273Z,100229.34
2022-12-16T23:54:25.265Z,100236.34
2022-12-16T23:57:11.308Z,100246.66
2022-12-16T23:59:57.290Z,100243.97
